sensor_id;sensor_type;location;lat;lon;timestamp;P1;durP1;ratioP1;P2;durP2;ratioP2
19651;SDS011;9974;52.146;14.668;2023-05-16T00:00:29;4.68;;;3.08;;
19651;SDS011;9974;52.146;14.668;2023-05-16T00:02:59;4.82;;;2.92;;
19651;SDS011;9974;52.146;14.668;2023-05-16T00:05:25;4.78;;;2.67;;
19651;SDS011;9974;52.146;14.668;2023-05-16T00:07:51;4.05;;;2.88;;
19651;SDS011;9974;52.146;14.668;2023-05-16T00:10:17;5.47;;;3.60;;
19651;SDS011;9974;52.146;14.668;2023-05-16T00:12:43;6.20;;;3.45;;
19651;SDS011;9974;52.146;14.668;2023-05-16T00:15:12;5.63;;;3.30;;
19651;SDS011;9974;52.146;14.668;2023-05-16T00:17:38;4.35;;;3.40;;
19651;SDS011;9974;52.146;14.668;2023-05-16T00:20:05;5.35;;;3.33;;
19651;SDS011;9974;52.146;14.668;2023-05-16T00:22:38;4.65;;;3.17;;
19651;SDS011;9974;52.146;14.668;2023-05-16T00:25:04;4.53;;;3.28;;
19651;SDS011;9974;52.146;14.668;2023-05-16T00:27:32;7.53;;;3.40;;
19651;SDS011;9974;52.146;14.668;2023-05-16T00:29:58;8.90;;;3.65;;
19651;SDS011;9974;52.146;14.668;2023-05-16T00:32:25;5.22;;;4.07;;
19651;SDS011;9974;52.146;14.668;2023-05-16T00:34:51;6.68;;;3.33;;
19651;SDS011;9974;52.146;14.668;2023-05-16T00:37:17;15.18;;;3.80;;
19651;SDS011;9974;52.146;14.668;2023-05-16T00:39:43;4.25;;;3.05;;
19651;SDS011;9974;52.146;14.668;2023-05-16T00:42:09;5.75;;;3.72;;
19651;SDS011;9974;52.146;14.668;2023-05-16T00:44:35;5.32;;;3.40;;
19651;SDS011;9974;52.146;14.668;2023-05-16T00:47:01;6.25;;;3.70;;
19651;SDS011;9974;52.146;14.668;2023-05-16T00:49:28;4.60;;;2.80;;
19651;SDS011;9974;52.146;14.668;2023-05-16T00:51:54;4.90;;;3.15;;
19651;SDS011;9974;52.146;14.668;2023-05-16T00:54:21;5.72;;;3.50;;
19651;SDS011;9974;52.146;14.668;2023-05-16T00:56:50;7.35;;;3.90;;
19651;SDS011;9974;52.146;14.668;2023-05-16T00:59:16;4.30;;;3.15;;
19651;SDS011;9974;52.146;14.668;2023-05-16T01:01:43;5.70;;;3.75;;
19651;SDS011;9974;52.146;14.668;2023-05-16T01:04:11;5.22;;;3.70;;
19651;SDS011;9974;52.146;14.668;2023-05-16T01:06:38;3.92;;;3.17;;
19651;SDS011;9974;52.146;14.668;2023-05-16T01:09:04;5.68;;;4.15;;
19651;SDS011;9974;52.146;14.668;2023-05-16T01:14:45;4.55;;;3.30;;
19651;SDS011;9974;52.146;14.668;2023-05-16T01:17:31;12.88;;;3.58;;
19651;SDS011;9974;52.146;14.668;2023-05-16T01:23:47;5.68;;;4.35;;
19651;SDS011;9974;52.146;14.668;2023-05-16T01:26:22;5.63;;;3.72;;
19651;SDS011;9974;52.146;14.668;2023-05-16T01:28:51;6.43;;;4.20;;
19651;SDS011;9974;52.146;14.668;2023-05-16T01:31:18;5.85;;;3.83;;
19651;SDS011;9974;52.146;14.668;2023-05-16T01:33:45;6.75;;;4.10;;
19651;SDS011;9974;52.146;14.668;2023-05-16T01:39:10;8.75;;;4.70;;
19651;SDS011;9974;52.146;14.668;2023-05-16T01:41:53;5.70;;;3.80;;
19651;SDS011;9974;52.146;14.668;2023-05-16T01:44:31;5.82;;;3.83;;
19651;SDS011;9974;52.146;14.668;2023-05-16T01:47:13;5.53;;;4.13;;
19651;SDS011;9974;52.146;14.668;2023-05-16T01:49:49;5.80;;;3.75;;
19651;SDS011;9974;52.146;14.668;2023-05-16T01:52:31;7.13;;;4.43;;
19651;SDS011;9974;52.146;14.668;2023-05-16T01:55:03;5.63;;;4.30;;
19651;SDS011;9974;52.146;14.668;2023-05-16T01:57:34;5.32;;;3.78;;
19651;SDS011;9974;52.146;14.668;2023-05-16T02:00:00;6.15;;;4.22;;
19651;SDS011;9974;52.146;14.668;2023-05-16T02:02:26;6.18;;;3.78;;
19651;SDS011;9974;52.146;14.668;2023-05-16T02:04:52;6.15;;;4.10;;
19651;SDS011;9974;52.146;14.668;2023-05-16T02:07:18;4.85;;;3.67;;
19651;SDS011;9974;52.146;14.668;2023-05-16T02:09:45;5.10;;;3.58;;
19651;SDS011;9974;52.146;14.668;2023-05-16T02:12:11;7.53;;;4.60;;
19651;SDS011;9974;52.146;14.668;2023-05-16T02:14:37;6.47;;;4.35;;
19651;SDS011;9974;52.146;14.668;2023-05-16T02:17:03;7.10;;;4.45;;
19651;SDS011;9974;52.146;14.668;2023-05-16T02:19:29;6.70;;;4.97;;
19651;SDS011;9974;52.146;14.668;2023-05-16T02:21:55;6.25;;;4.22;;
19651;SDS011;9974;52.146;14.668;2023-05-16T02:24:21;6.55;;;4.50;;
19651;SDS011;9974;52.146;14.668;2023-05-16T02:26:48;7.15;;;5.18;;
19651;SDS011;9974;52.146;14.668;2023-05-16T02:29:14;7.82;;;4.80;;
19651;SDS011;9974;52.146;14.668;2023-05-16T02:31:40;7.60;;;5.05;;
19651;SDS011;9974;52.146;14.668;2023-05-16T02:34:07;6.25;;;4.43;;
19651;SDS011;9974;52.146;14.668;2023-05-16T02:36:33;10.43;;;4.82;;
19651;SDS011;9974;52.146;14.668;2023-05-16T02:39:00;6.75;;;4.85;;
19651;SDS011;9974;52.146;14.668;2023-05-16T02:41:27;6.40;;;3.95;;
19651;SDS011;9974;52.146;14.668;2023-05-16T02:43:53;6.68;;;4.65;;
19651;SDS011;9974;52.146;14.668;2023-05-16T02:46:22;7.15;;;4.93;;
19651;SDS011;9974;52.146;14.668;2023-05-16T02:48:51;9.15;;;5.25;;
19651;SDS011;9974;52.146;14.668;2023-05-16T02:51:22;9.40;;;4.65;;
19651;SDS011;9974;52.146;14.668;2023-05-16T02:53:49;7.57;;;5.00;;
19651;SDS011;9974;52.146;14.668;2023-05-16T02:56:16;6.10;;;4.72;;
19651;SDS011;9974;52.146;14.668;2023-05-16T02:58:42;9.38;;;5.22;;
19651;SDS011;9974;52.146;14.668;2023-05-16T03:01:12;8.73;;;5.03;;
19651;SDS011;9974;52.146;14.668;2023-05-16T03:03:38;7.80;;;5.60;;
19651;SDS011;9974;52.146;14.668;2023-05-16T03:06:04;7.93;;;4.95;;
19651;SDS011;9974;52.146;14.668;2023-05-16T03:08:30;10.48;;;6.38;;
19651;SDS011;9974;52.146;14.668;2023-05-16T03:10:56;6.97;;;5.57;;
19651;SDS011;9974;52.146;14.668;2023-05-16T03:13:22;9.07;;;6.32;;
19651;SDS011;9974;52.146;14.668;2023-05-16T03:15:48;9.35;;;5.97;;
19651;SDS011;9974;52.146;14.668;2023-05-16T03:18:14;10.73;;;6.50;;
19651;SDS011;9974;52.146;14.668;2023-05-16T03:20:40;8.65;;;5.82;;
19651;SDS011;9974;52.146;14.668;2023-05-16T03:23:06;8.23;;;5.55;;
19651;SDS011;9974;52.146;14.668;2023-05-16T03:25:33;8.43;;;5.65;;
19651;SDS011;9974;52.146;14.668;2023-05-16T03:28:00;8.98;;;5.78;;
19651;SDS011;9974;52.146;14.668;2023-05-16T03:30:26;7.10;;;5.22;;
19651;SDS011;9974;52.146;14.668;2023-05-16T03:32:52;10.35;;;5.43;;
19651;SDS011;9974;52.146;14.668;2023-05-16T03:35:18;8.68;;;5.85;;
19651;SDS011;9974;52.146;14.668;2023-05-16T03:37:44;9.15;;;6.40;;
19651;SDS011;9974;52.146;14.668;2023-05-16T03:40:10;7.53;;;5.22;;
19651;SDS011;9974;52.146;14.668;2023-05-16T03:42:36;8.18;;;6.40;;
19651;SDS011;9974;52.146;14.668;2023-05-16T03:45:03;8.07;;;5.90;;
19651;SDS011;9974;52.146;14.668;2023-05-16T03:47:30;7.03;;;5.40;;
19651;SDS011;9974;52.146;14.668;2023-05-16T03:49:56;11.18;;;6.45;;
19651;SDS011;9974;52.146;14.668;2023-05-16T03:52:22;11.27;;;7.25;;
19651;SDS011;9974;52.146;14.668;2023-05-16T03:54:49;9.63;;;5.90;;
19651;SDS011;9974;52.146;14.668;2023-05-16T03:57:14;10.02;;;7.13;;
19651;SDS011;9974;52.146;14.668;2023-05-16T03:59:40;8.10;;;6.22;;
19651;SDS011;9974;52.146;14.668;2023-05-16T04:02:06;14.02;;;7.18;;
19651;SDS011;9974;52.146;14.668;2023-05-16T04:04:32;15.68;;;7.45;;
19651;SDS011;9974;52.146;14.668;2023-05-16T04:06:59;9.68;;;6.70;;
19651;SDS011;9974;52.146;14.668;2023-05-16T04:09:26;9.45;;;6.82;;
19651;SDS011;9974;52.146;14.668;2023-05-16T04:11:52;9.40;;;6.85;;
19651;SDS011;9974;52.146;14.668;2023-05-16T04:14:20;10.65;;;6.90;;
19651;SDS011;9974;52.146;14.668;2023-05-16T04:16:47;13.57;;;7.68;;
19651;SDS011;9974;52.146;14.668;2023-05-16T04:19:13;11.10;;;7.25;;
19651;SDS011;9974;52.146;14.668;2023-05-16T04:21:39;9.82;;;7.18;;
19651;SDS011;9974;52.146;14.668;2023-05-16T04:24:05;10.35;;;7.15;;
19651;SDS011;9974;52.146;14.668;2023-05-16T04:26:31;10.30;;;7.47;;
19651;SDS011;9974;52.146;14.668;2023-05-16T04:28:58;10.88;;;6.72;;
19651;SDS011;9974;52.146;14.668;2023-05-16T04:31:24;13.95;;;7.45;;
19651;SDS011;9974;52.146;14.668;2023-05-16T04:33:50;12.90;;;8.40;;
19651;SDS011;9974;52.146;14.668;2023-05-16T04:36:16;13.80;;;7.78;;
19651;SDS011;9974;52.146;14.668;2023-05-16T04:38:42;10.55;;;8.07;;
19651;SDS011;9974;52.146;14.668;2023-05-16T04:41:08;11.25;;;8.25;;
19651;SDS011;9974;52.146;14.668;2023-05-16T04:43:34;12.10;;;7.78;;
19651;SDS011;9974;52.146;14.668;2023-05-16T04:46:00;12.68;;;9.20;;
19651;SDS011;9974;52.146;14.668;2023-05-16T04:48:26;10.30;;;8.48;;
19651;SDS011;9974;52.146;14.668;2023-05-16T04:50:52;16.52;;;8.85;;
19651;SDS011;9974;52.146;14.668;2023-05-16T04:53:18;12.60;;;8.43;;
19651;SDS011;9974;52.146;14.668;2023-05-16T04:55:44;12.90;;;8.90;;
19651;SDS011;9974;52.146;14.668;2023-05-16T04:58:11;15.45;;;10.50;;
19651;SDS011;9974;52.146;14.668;2023-05-16T05:00:37;12.45;;;8.90;;
19651;SDS011;9974;52.146;14.668;2023-05-16T05:03:03;12.85;;;8.88;;
19651;SDS011;9974;52.146;14.668;2023-05-16T05:05:29;12.77;;;8.93;;
19651;SDS011;9974;52.146;14.668;2023-05-16T05:07:56;15.45;;;8.85;;
19651;SDS011;9974;52.146;14.668;2023-05-16T05:10:22;12.77;;;9.65;;
19651;SDS011;9974;52.146;14.668;2023-05-16T05:12:48;14.95;;;8.63;;
19651;SDS011;9974;52.146;14.668;2023-05-16T05:15:14;13.15;;;9.48;;
19651;SDS011;9974;52.146;14.668;2023-05-16T05:17:40;11.50;;;8.43;;
19651;SDS011;9974;52.146;14.668;2023-05-16T05:20:06;17.55;;;10.38;;
19651;SDS011;9974;52.146;14.668;2023-05-16T05:22:34;13.05;;;9.15;;
19651;SDS011;9974;52.146;14.668;2023-05-16T05:25:00;13.07;;;8.77;;
19651;SDS011;9974;52.146;14.668;2023-05-16T05:27:26;13.80;;;9.07;;
19651;SDS011;9974;52.146;14.668;2023-05-16T05:29:52;14.70;;;8.65;;
19651;SDS011;9974;52.146;14.668;2023-05-16T05:32:18;13.27;;;9.88;;
19651;SDS011;9974;52.146;14.668;2023-05-16T05:34:45;16.05;;;9.73;;
19651;SDS011;9974;52.146;14.668;2023-05-16T05:37:11;18.98;;;9.98;;
19651;SDS011;9974;52.146;14.668;2023-05-16T05:39:37;12.30;;;9.25;;
19651;SDS011;9974;52.146;14.668;2023-05-16T05:42:03;14.85;;;9.68;;
19651;SDS011;9974;52.146;14.668;2023-05-16T05:44:29;13.60;;;9.27;;
19651;SDS011;9974;52.146;14.668;2023-05-16T05:46:55;13.13;;;9.10;;
19651;SDS011;9974;52.146;14.668;2023-05-16T05:49:22;12.52;;;9.18;;
19651;SDS011;9974;52.146;14.668;2023-05-16T05:51:49;12.95;;;9.05;;
19651;SDS011;9974;52.146;14.668;2023-05-16T05:54:18;13.10;;;9.07;;
19651;SDS011;9974;52.146;14.668;2023-05-16T05:56:44;11.90;;;8.52;;
19651;SDS011;9974;52.146;14.668;2023-05-16T05:59:10;12.57;;;9.45;;
19651;SDS011;9974;52.146;14.668;2023-05-16T06:01:36;11.07;;;8.15;;
19651;SDS011;9974;52.146;14.668;2023-05-16T06:04:03;13.63;;;8.40;;
19651;SDS011;9974;52.146;14.668;2023-05-16T06:06:29;14.40;;;8.38;;
19651;SDS011;9974;52.146;14.668;2023-05-16T06:08:56;12.80;;;9.45;;
19651;SDS011;9974;52.146;14.668;2023-05-16T06:11:22;11.45;;;7.63;;
19651;SDS011;9974;52.146;14.668;2023-05-16T06:13:49;12.77;;;7.72;;
19651;SDS011;9974;52.146;14.668;2023-05-16T06:16:16;12.32;;;9.18;;
19651;SDS011;9974;52.146;14.668;2023-05-16T06:18:41;11.07;;;7.72;;
19651;SDS011;9974;52.146;14.668;2023-05-16T06:21:07;11.65;;;7.80;;
19651;SDS011;9974;52.146;14.668;2023-05-16T06:23:33;15.07;;;8.90;;
19651;SDS011;9974;52.146;14.668;2023-05-16T06:25:59;11.88;;;8.13;;
19651;SDS011;9974;52.146;14.668;2023-05-16T06:28:26;14.52;;;8.02;;
19651;SDS011;9974;52.146;14.668;2023-05-16T06:30:52;10.30;;;7.15;;
19651;SDS011;9974;52.146;14.668;2023-05-16T06:33:18;12.32;;;7.72;;
19651;SDS011;9974;52.146;14.668;2023-05-16T06:35:45;15.25;;;8.00;;
19651;SDS011;9974;52.146;14.668;2023-05-16T06:38:12;12.70;;;7.80;;
19651;SDS011;9974;52.146;14.668;2023-05-16T06:40:38;12.90;;;7.75;;
19651;SDS011;9974;52.146;14.668;2023-05-16T06:43:04;11.82;;;8.07;;
19651;SDS011;9974;52.146;14.668;2023-05-16T06:45:30;10.32;;;7.75;;
19651;SDS011;9974;52.146;14.668;2023-05-16T06:47:56;14.95;;;8.23;;
19651;SDS011;9974;52.146;14.668;2023-05-16T06:50:22;11.85;;;7.72;;
19651;SDS011;9974;52.146;14.668;2023-05-16T06:52:49;18.65;;;7.05;;
19651;SDS011;9974;52.146;14.668;2023-05-16T06:55:15;12.93;;;8.77;;
19651;SDS011;9974;52.146;14.668;2023-05-16T06:57:41;9.88;;;6.55;;
19651;SDS011;9974;52.146;14.668;2023-05-16T07:00:07;11.70;;;7.20;;
19651;SDS011;9974;52.146;14.668;2023-05-16T07:02:33;9.93;;;6.63;;
19651;SDS011;9974;52.146;14.668;2023-05-16T07:04:59;11.35;;;7.00;;
19651;SDS011;9974;52.146;14.668;2023-05-16T07:07:25;9.77;;;7.18;;
19651;SDS011;9974;52.146;14.668;2023-05-16T07:09:51;9.50;;;6.45;;
19651;SDS011;9974;52.146;14.668;2023-05-16T07:12:18;8.55;;;6.55;;
19651;SDS011;9974;52.146;14.668;2023-05-16T07:14:44;12.38;;;6.43;;
19651;SDS011;9974;52.146;14.668;2023-05-16T07:17:10;8.77;;;5.78;;
19651;SDS011;9974;52.146;14.668;2023-05-16T07:19:36;11.25;;;7.30;;
19651;SDS011;9974;52.146;14.668;2023-05-16T07:22:02;9.75;;;6.78;;
19651;SDS011;9974;52.146;14.668;2023-05-16T07:24:28;11.05;;;6.90;;
19651;SDS011;9974;52.146;14.668;2023-05-16T07:26:54;10.43;;;6.75;;
19651;SDS011;9974;52.146;14.668;2023-05-16T07:29:20;14.57;;;8.60;;
19651;SDS011;9974;52.146;14.668;2023-05-16T07:31:46;15.80;;;7.68;;
19651;SDS011;9974;52.146;14.668;2023-05-16T07:34:12;10.75;;;6.72;;
19651;SDS011;9974;52.146;14.668;2023-05-16T07:36:38;13.45;;;7.45;;
19651;SDS011;9974;52.146;14.668;2023-05-16T07:39:05;11.38;;;6.82;;
19651;SDS011;9974;52.146;14.668;2023-05-16T07:41:31;12.13;;;7.68;;
19651;SDS011;9974;52.146;14.668;2023-05-16T07:43:57;12.43;;;7.82;;
19651;SDS011;9974;52.146;14.668;2023-05-16T07:46:23;10.60;;;6.78;;
19651;SDS011;9974;52.146;14.668;2023-05-16T07:48:49;11.35;;;7.85;;
19651;SDS011;9974;52.146;14.668;2023-05-16T07:51:15;9.35;;;5.60;;
19651;SDS011;9974;52.146;14.668;2023-05-16T07:53:41;8.38;;;6.25;;
19651;SDS011;9974;52.146;14.668;2023-05-16T07:56:07;11.15;;;6.05;;
19651;SDS011;9974;52.146;14.668;2023-05-16T07:58:33;11.45;;;6.80;;
19651;SDS011;9974;52.146;14.668;2023-05-16T08:00:59;11.35;;;6.60;;
19651;SDS011;9974;52.146;14.668;2023-05-16T08:03:26;11.88;;;7.05;;
19651;SDS011;9974;52.146;14.668;2023-05-16T08:05:52;9.40;;;6.47;;
19651;SDS011;9974;52.146;14.668;2023-05-16T08:08:18;13.57;;;5.82;;
19651;SDS011;9974;52.146;14.668;2023-05-16T08:10:43;9.63;;;6.88;;
19651;SDS011;9974;52.146;14.668;2023-05-16T08:13:09;11.55;;;6.45;;
19651;SDS011;9974;52.146;14.668;2023-05-16T08:15:35;14.82;;;9.02;;
19651;SDS011;9974;52.146;14.668;2023-05-16T08:18:01;13.13;;;7.20;;
19651;SDS011;9974;52.146;14.668;2023-05-16T08:20:26;11.57;;;7.18;;
19651;SDS011;9974;52.146;14.668;2023-05-16T08:22:53;9.15;;;6.25;;
19651;SDS011;9974;52.146;14.668;2023-05-16T08:25:19;11.00;;;6.65;;
19651;SDS011;9974;52.146;14.668;2023-05-16T08:27:47;9.27;;;5.70;;
19651;SDS011;9974;52.146;14.668;2023-05-16T08:30:13;10.68;;;7.63;;
19651;SDS011;9974;52.146;14.668;2023-05-16T08:32:39;8.48;;;6.13;;
19651;SDS011;9974;52.146;14.668;2023-05-16T08:35:05;11.95;;;7.43;;
19651;SDS011;9974;52.146;14.668;2023-05-16T08:37:32;10.98;;;6.18;;
19651;SDS011;9974;52.146;14.668;2023-05-16T08:39:58;9.40;;;6.53;;
19651;SDS011;9974;52.146;14.668;2023-05-16T08:42:24;15.20;;;7.35;;
19651;SDS011;9974;52.146;14.668;2023-05-16T08:44:51;9.98;;;6.65;;
19651;SDS011;9974;52.146;14.668;2023-05-16T08:47:18;11.90;;;6.53;;
19651;SDS011;9974;52.146;14.668;2023-05-16T08:49:46;9.13;;;6.43;;
19651;SDS011;9974;52.146;14.668;2023-05-16T08:52:12;12.07;;;7.35;;
19651;SDS011;9974;52.146;14.668;2023-05-16T08:54:42;11.00;;;7.53;;
19651;SDS011;9974;52.146;14.668;2023-05-16T08:57:09;11.10;;;7.43;;
19651;SDS011;9974;52.146;14.668;2023-05-16T08:59:36;17.55;;;8.15;;
19651;SDS011;9974;52.146;14.668;2023-05-16T09:02:03;12.98;;;7.68;;
19651;SDS011;9974;52.146;14.668;2023-05-16T09:04:29;14.20;;;8.18;;
19651;SDS011;9974;52.146;14.668;2023-05-16T09:06:55;11.95;;;7.50;;
19651;SDS011;9974;52.146;14.668;2023-05-16T09:09:22;13.88;;;8.10;;
19651;SDS011;9974;52.146;14.668;2023-05-16T09:11:48;12.52;;;8.02;;
19651;SDS011;9974;52.146;14.668;2023-05-16T09:14:14;10.88;;;7.25;;
19651;SDS011;9974;52.146;14.668;2023-05-16T09:16:40;13.02;;;7.82;;
19651;SDS011;9974;52.146;14.668;2023-05-16T09:19:06;11.55;;;7.68;;
19651;SDS011;9974;52.146;14.668;2023-05-16T09:21:32;12.05;;;6.80;;
19651;SDS011;9974;52.146;14.668;2023-05-16T09:24:02;12.88;;;8.07;;
19651;SDS011;9974;52.146;14.668;2023-05-16T09:26:29;11.88;;;8.10;;
19651;SDS011;9974;52.146;14.668;2023-05-16T09:28:59;12.98;;;7.70;;
19651;SDS011;9974;52.146;14.668;2023-05-16T09:31:26;11.80;;;7.50;;
19651;SDS011;9974;52.146;14.668;2023-05-16T09:34:02;9.90;;;7.25;;
19651;SDS011;9974;52.146;14.668;2023-05-16T09:36:31;10.63;;;6.88;;
19651;SDS011;9974;52.146;14.668;2023-05-16T09:38:57;12.80;;;7.65;;
19651;SDS011;9974;52.146;14.668;2023-05-16T09:41:23;10.60;;;6.60;;
19651;SDS011;9974;52.146;14.668;2023-05-16T09:43:48;9.00;;;6.93;;
19651;SDS011;9974;52.146;14.668;2023-05-16T09:46:15;11.18;;;8.40;;
19651;SDS011;9974;52.146;14.668;2023-05-16T09:48:45;8.93;;;6.97;;
19651;SDS011;9974;52.146;14.668;2023-05-16T09:51:12;13.73;;;7.95;;
19651;SDS011;9974;52.146;14.668;2023-05-16T09:53:39;10.25;;;7.22;;
19651;SDS011;9974;52.146;14.668;2023-05-16T09:58:35;9.35;;;6.80;;
19651;SDS011;9974;52.146;14.668;2023-05-16T10:01:05;10.90;;;7.15;;
19651;SDS011;9974;52.146;14.668;2023-05-16T10:03:36;8.85;;;5.75;;
19651;SDS011;9974;52.146;14.668;2023-05-16T10:06:06;13.25;;;7.22;;
19651;SDS011;9974;52.146;14.668;2023-05-16T10:08:33;9.25;;;6.07;;
19651;SDS011;9974;52.146;14.668;2023-05-16T10:11:00;8.48;;;6.25;;
19651;SDS011;9974;52.146;14.668;2023-05-16T10:13:31;8.07;;;5.65;;
19651;SDS011;9974;52.146;14.668;2023-05-16T10:16:04;11.65;;;6.97;;
19651;SDS011;9974;52.146;14.668;2023-05-16T10:18:35;10.00;;;5.20;;
19651;SDS011;9974;52.146;14.668;2023-05-16T10:21:07;8.18;;;5.20;;
19651;SDS011;9974;52.146;14.668;2023-05-16T10:23:40;10.68;;;6.15;;
19651;SDS011;9974;52.146;14.668;2023-05-16T10:26:08;13.57;;;6.15;;
19651;SDS011;9974;52.146;14.668;2023-05-16T10:28:37;7.97;;;5.68;;
19651;SDS011;9974;52.146;14.668;2023-05-16T10:31:05;9.68;;;5.70;;
19651;SDS011;9974;52.146;14.668;2023-05-16T10:33:32;9.73;;;6.32;;
19651;SDS011;9974;52.146;14.668;2023-05-16T10:36:00;8.57;;;6.78;;
19651;SDS011;9974;52.146;14.668;2023-05-16T10:38:27;7.38;;;5.45;;
19651;SDS011;9974;52.146;14.668;2023-05-16T10:40:54;10.88;;;6.38;;
19651;SDS011;9974;52.146;14.668;2023-05-16T10:43:24;10.80;;;6.57;;
19651;SDS011;9974;52.146;14.668;2023-05-16T10:46:09;8.90;;;6.10;;
19651;SDS011;9974;52.146;14.668;2023-05-16T10:48:36;10.52;;;7.20;;
19651;SDS011;9974;52.146;14.668;2023-05-16T10:54:07;8.55;;;6.25;;
19651;SDS011;9974;52.146;14.668;2023-05-16T10:56:34;8.95;;;5.25;;
19651;SDS011;9974;52.146;14.668;2023-05-16T10:59:01;6.72;;;5.10;;
19651;SDS011;9974;52.146;14.668;2023-05-16T11:01:32;7.53;;;5.53;;
19651;SDS011;9974;52.146;14.668;2023-05-16T11:04:08;8.82;;;4.55;;
19651;SDS011;9974;52.146;14.668;2023-05-16T11:11:52;6.93;;;3.65;;
19651;SDS011;9974;52.146;14.668;2023-05-16T11:19:49;5.93;;;4.22;;
19651;SDS011;9974;52.146;14.668;2023-05-16T11:22:25;6.00;;;4.63;;
19651;SDS011;9974;52.146;14.668;2023-05-16T11:25:04;5.65;;;3.33;;
19651;SDS011;9974;52.146;14.668;2023-05-16T11:30:17;7.35;;;4.53;;
19651;SDS011;9974;52.146;14.668;2023-05-16T11:32:45;6.05;;;3.92;;
19651;SDS011;9974;52.146;14.668;2023-05-16T11:35:12;10.25;;;5.30;;
19651;SDS011;9974;52.146;14.668;2023-05-16T11:37:41;6.35;;;4.30;;
19651;SDS011;9974;52.146;14.668;2023-05-16T11:40:09;7.35;;;4.20;;
19651;SDS011;9974;52.146;14.668;2023-05-16T11:42:38;5.47;;;3.80;;
19651;SDS011;9974;52.146;14.668;2023-05-16T11:45:09;6.95;;;4.05;;
19651;SDS011;9974;52.146;14.668;2023-05-16T11:47:37;7.25;;;3.90;;
19651;SDS011;9974;52.146;14.668;2023-05-16T11:50:13;9.70;;;3.88;;
19651;SDS011;9974;52.146;14.668;2023-05-16T11:52:48;5.15;;;3.38;;
19651;SDS011;9974;52.146;14.668;2023-05-16T11:55:21;6.32;;;3.60;;
19651;SDS011;9974;52.146;14.668;2023-05-16T11:57:51;5.90;;;3.53;;
19651;SDS011;9974;52.146;14.668;2023-05-16T12:00:18;5.00;;;3.92;;
19651;SDS011;9974;52.146;14.668;2023-05-16T12:02:46;6.55;;;4.15;;
19651;SDS011;9974;52.146;14.668;2023-05-16T12:05:12;6.13;;;3.78;;
19651;SDS011;9974;52.146;14.668;2023-05-16T12:07:40;6.05;;;2.60;;
19651;SDS011;9974;52.146;14.668;2023-05-16T12:10:08;4.45;;;2.72;;
19651;SDS011;9974;52.146;14.668;2023-05-16T12:12:42;4.55;;;2.45;;
19651;SDS011;9974;52.146;14.668;2023-05-16T12:15:11;3.85;;;2.40;;
19651;SDS011;9974;52.146;14.668;2023-05-16T12:17:38;4.30;;;2.65;;
19651;SDS011;9974;52.146;14.668;2023-05-16T12:20:05;3.90;;;2.40;;
19651;SDS011;9974;52.146;14.668;2023-05-16T12:22:38;4.47;;;3.05;;
19651;SDS011;9974;52.146;14.668;2023-05-16T12:25:19;5.25;;;2.80;;
19651;SDS011;9974;52.146;14.668;2023-05-16T12:27:56;4.28;;;2.38;;
19651;SDS011;9974;52.146;14.668;2023-05-16T12:30:26;3.13;;;2.22;;
19651;SDS011;9974;52.146;14.668;2023-05-16T12:33:00;3.42;;;2.03;;
19651;SDS011;9974;52.146;14.668;2023-05-16T12:35:28;2.88;;;2.55;;
19651;SDS011;9974;52.146;14.668;2023-05-16T12:37:57;7.00;;;2.67;;
19651;SDS011;9974;52.146;14.668;2023-05-16T12:40:27;5.32;;;2.72;;
19651;SDS011;9974;52.146;14.668;2023-05-16T12:42:53;5.22;;;2.40;;
19651;SDS011;9974;52.146;14.668;2023-05-16T12:45:20;4.97;;;2.10;;
19651;SDS011;9974;52.146;14.668;2023-05-16T12:47:47;5.85;;;2.47;;
19651;SDS011;9974;52.146;14.668;2023-05-16T12:50:13;4.07;;;2.40;;
19651;SDS011;9974;52.146;14.668;2023-05-16T12:52:54;8.80;;;2.00;;
19651;SDS011;9974;52.146;14.668;2023-05-16T12:55:24;4.25;;;2.47;;
19651;SDS011;9974;52.146;14.668;2023-05-16T12:57:50;5.00;;;2.33;;
19651;SDS011;9974;52.146;14.668;2023-05-16T13:00:18;2.60;;;1.92;;
19651;SDS011;9974;52.146;14.668;2023-05-16T13:02:44;2.88;;;2.00;;
19651;SDS011;9974;52.146;14.668;2023-05-16T13:05:11;3.20;;;1.95;;
19651;SDS011;9974;52.146;14.668;2023-05-16T13:07:37;6.50;;;2.30;;
19651;SDS011;9974;52.146;14.668;2023-05-16T13:10:06;4.35;;;2.25;;
19651;SDS011;9974;52.146;14.668;2023-05-16T13:12:37;6.75;;;2.15;;
19651;SDS011;9974;52.146;14.668;2023-05-16T13:15:05;2.67;;;1.50;;
19651;SDS011;9974;52.146;14.668;2023-05-16T13:17:32;2.67;;;1.83;;
19651;SDS011;9974;52.146;14.668;2023-05-16T13:19:59;6.78;;;2.03;;
19651;SDS011;9974;52.146;14.668;2023-05-16T13:22:26;3.50;;;1.88;;
19651;SDS011;9974;52.146;14.668;2023-05-16T13:24:52;6.75;;;1.58;;
19651;SDS011;9974;52.146;14.668;2023-05-16T13:27:18;2.85;;;1.70;;
19651;SDS011;9974;52.146;14.668;2023-05-16T13:29:44;4.32;;;1.20;;
19651;SDS011;9974;52.146;14.668;2023-05-16T13:32:10;2.90;;;1.40;;
19651;SDS011;9974;52.146;14.668;2023-05-16T13:34:36;2.83;;;1.67;;
19651;SDS011;9974;52.146;14.668;2023-05-16T13:37:02;3.38;;;1.65;;
19651;SDS011;9974;52.146;14.668;2023-05-16T13:39:27;1.77;;;1.48;;
19651;SDS011;9974;52.146;14.668;2023-05-16T13:41:53;3.95;;;1.27;;
19651;SDS011;9974;52.146;14.668;2023-05-16T13:44:19;2.65;;;1.23;;
19651;SDS011;9974;52.146;14.668;2023-05-16T13:46:46;1.77;;;1.10;;
19651;SDS011;9974;52.146;14.668;2023-05-16T13:49:12;4.85;;;1.73;;
19651;SDS011;9974;52.146;14.668;2023-05-16T13:51:38;3.83;;;1.67;;
19651;SDS011;9974;52.146;14.668;2023-05-16T13:54:04;3.05;;;1.10;;
19651;SDS011;9974;52.146;14.668;2023-05-16T13:56:30;5.88;;;1.48;;
19651;SDS011;9974;52.146;14.668;2023-05-16T13:58:56;2.03;;;1.27;;
19651;SDS011;9974;52.146;14.668;2023-05-16T14:01:23;3.20;;;1.27;;
19651;SDS011;9974;52.146;14.668;2023-05-16T14:03:49;2.80;;;1.38;;
19651;SDS011;9974;52.146;14.668;2023-05-16T14:06:15;2.45;;;1.40;;
19651;SDS011;9974;52.146;14.668;2023-05-16T14:08:41;5.35;;;2.08;;
19651;SDS011;9974;52.146;14.668;2023-05-16T14:11:06;2.42;;;1.20;;
19651;SDS011;9974;52.146;14.668;2023-05-16T14:13:32;2.67;;;1.02;;
19651;SDS011;9974;52.146;14.668;2023-05-16T14:15:58;1.88;;;1.15;;
19651;SDS011;9974;52.146;14.668;2023-05-16T14:18:26;2.05;;;0.95;;
19651;SDS011;9974;52.146;14.668;2023-05-16T14:20:52;4.53;;;2.03;;
19651;SDS011;9974;52.146;14.668;2023-05-16T14:23:20;1.85;;;1.27;;
19651;SDS011;9974;52.146;14.668;2023-05-16T14:25:46;2.22;;;1.25;;
19651;SDS011;9974;52.146;14.668;2023-05-16T14:28:12;5.53;;;1.50;;
19651;SDS011;9974;52.146;14.668;2023-05-16T14:30:37;2.25;;;1.33;;
19651;SDS011;9974;52.146;14.668;2023-05-16T14:33:03;3.67;;;1.52;;
19651;SDS011;9974;52.146;14.668;2023-05-16T14:35:31;3.22;;;1.38;;
19651;SDS011;9974;52.146;14.668;2023-05-16T14:37:56;4.65;;;1.83;;
19651;SDS011;9974;52.146;14.668;2023-05-16T14:40:22;4.30;;;1.40;;
19651;SDS011;9974;52.146;14.668;2023-05-16T14:42:48;7.20;;;1.38;;
19651;SDS011;9974;52.146;14.668;2023-05-16T14:45:14;3.45;;;1.70;;
19651;SDS011;9974;52.146;14.668;2023-05-16T14:47:41;3.97;;;1.90;;
19651;SDS011;9974;52.146;14.668;2023-05-16T14:50:07;3.13;;;1.70;;
19651;SDS011;9974;52.146;14.668;2023-05-16T14:52:37;4.53;;;1.58;;
19651;SDS011;9974;52.146;14.668;2023-05-16T14:55:04;1.60;;;1.20;;
19651;SDS011;9974;52.146;14.668;2023-05-16T14:57:30;3.28;;;1.42;;
19651;SDS011;9974;52.146;14.668;2023-05-16T14:59:57;2.28;;;1.13;;
19651;SDS011;9974;52.146;14.668;2023-05-16T15:02:23;4.85;;;1.98;;
19651;SDS011;9974;52.146;14.668;2023-05-16T15:04:50;5.90;;;1.35;;
19651;SDS011;9974;52.146;14.668;2023-05-16T15:07:17;6.15;;;1.50;;
19651;SDS011;9974;52.146;14.668;2023-05-16T15:09:42;4.93;;;1.90;;
19651;SDS011;9974;52.146;14.668;2023-05-16T15:12:08;3.53;;;1.63;;